• Join FlightAware (Why Join?)
  • Login
  • US Flag 
08:14PM EST


 

Airport Tracker/Info


-or-


 

Live Flight TrackerFlight Track Log ✈ AAY891 ✈ 09-Jun-2014 ✈ KFWA - KPIE

Flight Track Log - Related Links

Times and Time Zones

All times are in EDT time to prevent confusion due to time zone crossing. See the AAY891 flight status page for this flight to view local times or setup timezone preferences in your user account.

Time Position Orientation Groundspeed Altitude Reporting Facility
EDT Latitude Longitude Course Direction KTS MPH feet Rate Location/Type
07:18PM 40.9189 -85.1381 143° Southeast 202 232 3,800  Level Chicago Center
07:19PM 40.8606 -85.0936 150° Southeast 228 262 5,700 2,220 Climbing Chicago Center
07:20PM 40.7972 -85.0372 146° Southeast 264 304 8,500 2,460 Climbing Chicago Center
07:21PM 40.7169 -84.9706 148° Southeast 280 322 10,900 1,620 Climbing Chicago Center
07:22PM 40.6406 -84.9078 148° Southeast 331 381 11,900 1,140 Climbing Chicago Center
07:23PM 40.8690 -85.1704 150° Southeast  Level Estimated
07:23PM 40.5906 -84.8664 148° Southeast 364 419 12,800  Level Indianapolis Center
07:24PM 40.8690 -85.1704 143° Southeast  Level Estimated
07:24PM 40.4925 -84.7858 148° Southeast 403 464 15,400  Level Indianapolis Center
07:25PM 40.3792 -84.6936 148° Southeast 405 466 17,900 1,800 Climbing Indianapolis Center
07:26PM 40.2767 -84.6097 148° Southeast 422 486 19,200 1,500 Climbing Indianapolis Center
07:27PM 40.1664 -84.5203 148° Southeast 454 522 21,000 1,500 Climbing Indianapolis Center
07:28PM 40.0578 -84.4311 148° Southeast 459 528 22,300 1,260 Climbing Indianapolis Center
07:29PM 39.9308 -84.3928 167° South 476 548 23,700 1,260 Climbing Indianapolis Center
07:30PM 39.8006 -84.3856 178° South 474 545 25,000 1,560 Climbing Indianapolis Center
07:31PM 39.6442 -84.3753 177° South 474 545 27,000 1,560 Climbing Indianapolis Center
07:32PM 39.5161 -84.3658 177° South 469 540 28,300 1,440 Climbing Indianapolis Center
07:33PM 39.3869 -84.3578 177° South 469 540 30,000 1,260 Climbing Indianapolis Center
07:34PM 39.2622 -84.3494 177° South 459 528 31,000 480 Climbing Indianapolis Center
07:35PM 39.1450 -84.3417 177° South 437 503 31,000  Level Indianapolis Center
07:36PM 39.0250 -84.3347 177° South 434 499 31,000  Level Indianapolis Center
07:37PM 38.9033 -84.3283 178° South 434 499 31,000  Level Indianapolis Center
07:38PM 38.7592 -84.3181 177° South 434 499 31,000  Level Indianapolis Center
07:39PM 38.6411 -84.3094 177° South 434 499 31,000  Level Indianapolis Center
07:40PM 38.5192 -84.2914 173° South 435 501 31,000  Level Indianapolis Center
07:41PM 38.3967 -84.2711 173° South 439 505 31,000  Level Indianapolis Center
07:42PM 38.2750 -84.2519 173° South 439 505 31,000  Level Indianapolis Center
07:44PM 38.1333 -84.2292 173° South 439 505 31,000  Level Indianapolis Center
07:45PM 38.0133 -84.2094 173° South 439 505 31,000  Level Indianapolis Center
07:46PM 37.8922 -84.1883 172° South 438 504 31,000  Level Indianapolis Center
07:47PM 37.7678 -84.1717 174° South 442 509 31,000  Level Indianapolis Center
07:48PM 37.6456 -84.1522 173° South 442 509 31,000  Level Indianapolis Center
07:49PM 37.5233 -84.1331 173° South 442 509 31,000  Level Indianapolis Center
07:50PM 37.4017 -84.1153 173° South 442 509 31,000  Level Indianapolis Center
07:51PM 37.2597 -84.0950 174° South 442 509 31,000  Level Indianapolis Center
07:52PM 37.1392 -84.0769 173° South 439 505 31,000  Level Indianapolis Center
07:53PM 37.0183 -84.0586 173° South 439 505 31,000  Level Indianapolis Center
07:54PM 36.8964 -84.0411 173° South 439 505 31,000  Level Indianapolis Center
07:55PM 36.7739 -84.0231 173° South 440 506 31,000  Level Indianapolis Center
07:56PM 36.6536 -84.0050 173° South 440 506 31,000  Level Indianapolis Center
07:57PM 36.5133 -84.0083 181° South 438 504 31,000  Level Indianapolis Center
07:58PM 36.4011 -84.0258 187° South 436 502 31,000  Level Indianapolis Center
07:59PM 36.2806 -84.0447 187° South 436 502 31,000  Level Indianapolis Center
08:00PM 36.1617 -84.0639 187° South 434 499 31,000  Level Indianapolis Center
08:00PM 36.0917 -84.0747 187° South 439 505 31,000  Level Atlanta Center
08:01PM 35.9728 -84.0953 188° South 439 505 31,000  Level Atlanta Center
08:02PM 35.8517 -84.1131 187° South 439 505 31,000  Level Atlanta Center
08:03PM 35.7350 -84.1308 187° South 439 505 31,000  Level Atlanta Center
08:04PM 35.6139 -84.1486 187° South 439 505 31,000  Level Atlanta Center
08:05PM 35.4844 -84.1664 186° South 434 499 31,000  Level Atlanta Center
08:06PM 35.3656 -84.1839 187° South 434 499 31,000  Level Atlanta Center
08:07PM 35.2467 -84.2017 187° South 434 499 31,000  Level Atlanta Center
08:08PM 35.1319 -84.2192 187° South 428 493 31,000  Level Atlanta Center
08:09PM 35.0128 -84.2367 187° South 428 493 31,000  Level Atlanta Center
08:10PM 34.8961 -84.2514 186° South 428 493 31,000  Level Atlanta Center
08:11PM 34.7792 -84.2689 187° South 428 493 31,000  Level Atlanta Center
08:12PM 34.6664 -84.2864 187° South 423 487 31,000  Level Atlanta Center
08:13PM 34.5475 -84.3036 187° South 423 487 31,000  Level Atlanta Center
08:14PM 34.4283 -84.3233 188° South 423 487 31,000  Level Atlanta Center
08:15PM 34.3114 -84.3381 186° South 428 493 31,000  Level Atlanta Center
08:16PM 34.1903 -84.3553 187° South 428 493 31,000  Level Atlanta Center
08:17PM 34.0778 -84.3747 188° South 436 502 31,000  Level Atlanta Center
08:18PM 33.9628 -84.3894 186° South 436 502 31,000  Level Atlanta Center
08:19PM 33.8458 -84.4064 187° South 441 507 31,000  Level Atlanta Center
08:20PM 33.7039 -84.4258 187° South 446 513 31,000  Level Atlanta Center
08:21PM 33.6100 -84.4353 185° South 446 513 31,000  Level Atlanta Center
08:22PM 33.4783 -84.4347 180° South 440 506 31,000  Level Atlanta Center
08:23PM 33.3575 -84.4317 179° South 435 501 31,000  Level Atlanta Center
08:24PM 33.2364 -84.4311 180° South 435 501 31,000  Level Atlanta Center
08:25PM 33.1153 -84.4281 179° South 435 501 31,000  Level Atlanta Center
08:26PM 32.9964 -84.4228 178° South 435 501 31,000  Level Atlanta Center
08:27PM 32.8772 -84.4222 180° South 435 501 31,000  Level Atlanta Center
08:28PM 32.7458 -84.4217 180° South 435 501 31,000  Level Atlanta Center
08:29PM 32.6269 -84.4161 178° South 435 501 31,000  Level Atlanta Center
08:30PM 32.5100 -84.4133 179° South 435 501 31,000  Level Atlanta Center
08:31PM 32.3911 -84.4103 179° South 435 501 31,000  Level Atlanta Center
08:32PM 32.2719 -84.4097 180° South 435 501 31,000  Level Atlanta Center
08:33PM 32.1531 -84.4069 179° South 435 501 31,000  Level Atlanta Center
08:34PM 32.0844 -84.4056 179° South 431 496 31,000  Level Jacksonville Center
08:35PM 31.9656 -84.4011 178° South 426 490 31,000  Level Jacksonville Center
08:36PM 31.8444 -84.3992 179° South 426 490 31,000  Level Jacksonville Center
08:37PM 31.7256 -84.3972 179° South 426 490 31,000  Level Jacksonville Center
08:38PM 31.6064 -84.3928 178° South 426 490 31,000  Level Jacksonville Center
08:39PM 31.4875 -84.3861 177° South 426 490 31,000  Level Jacksonville Center
08:40PM 31.3836 -84.3431 161° South 432 497 31,000  Level Jacksonville Center
08:41PM 31.2694 -84.2975 161° South 427 491 31,000  Level Jacksonville Center
08:42PM 31.1569 -84.2544 162° South 432 497 31,000  Level Jacksonville Center
08:43PM 31.0447 -84.2092 161° South 432 497 31,000  Level Jacksonville Center
08:44PM 30.9283 -84.1639 162° South 432 497 31,000  Level Jacksonville Center
08:45PM 30.8139 -84.1189 161° South 437 503 31,000  Level Jacksonville Center
08:46PM 30.7017 -84.0717 160° South 437 503 31,000  Level Jacksonville Center
08:47PM 30.5850 -84.0292 163° South 437 503 31,000 -60 Level Jacksonville Center
08:48PM 30.4747 -83.9869 162° South 432 497 30,900 -60 Descending Jacksonville Center
08:49PM 30.3603 -83.9422 161° South 432 497 30,900  Level Jacksonville Center
08:50PM 30.2481 -83.8978 161° South 432 497 30,900  Level Jacksonville Center
08:51PM 30.1333 -83.8581 163° South 427 491 30,900  Level Jacksonville Center
08:52PM 30.0189 -83.8114 161° South 427 491 30,900  Level Jacksonville Center
08:53PM 29.9044 -83.7694 162° South 427 491 31,000  Climbing Jacksonville Center
08:54PM 29.7919 -83.7256 161° South 427 491 30,900 -60 Descending Jacksonville Center
08:55PM 29.6817 -83.6814 161° South 427 491 30,900  Level Jacksonville Center
08:56PM 29.5669 -83.6400 163° South 427 491 30,900  Level Jacksonville Center
08:57PM 29.4544 -83.5986 162° South 422 486 30,900 -780 Level Jacksonville Center
08:58PM 29.3442 -83.5547 161° South 422 486 29,400 -1,800 Descending Jacksonville Center
08:59PM 29.2358 -83.5136 162° South 417 480 27,300 -1,920 Descending Jacksonville Center
09:00PM 29.1422 -83.4561 152° Southeast 407 468 25,600 -1,680 Descending Jacksonville Center
09:01PM 29.0483 -83.3983 152° Southeast 385 443 24,000 -1,740 Descending Jacksonville Center
09:02PM 28.9589 -83.3411 151° Southeast 379 436 22,200 -1,620 Descending Jacksonville Center
09:03PM 28.8694 -83.2814 150° Southeast 379 436 20,800 -1,500 Descending Jacksonville Center
09:04PM 28.7819 -83.2267 151° Southeast 366 421 19,300 -1,500 Descending Jacksonville Center
09:06PM 28.6553 -83.1447 150° Southeast 344 396 16,900 -1,620 Descending Miami Center
09:07PM 28.5625 -83.0883 152° Southeast 332 382 15,100 -1,680 Descending Miami Center
09:08PM 28.4850 -83.0406 152° Southeast 320 368 13,500 -1,380 Descending Miami Center
09:09PM 28.4078 -82.9925 151° Southeast 318 366 12,400 -1,320 Descending Miami Center
09:10PM 28.3319 -82.9472 152° Southeast 310 357 10,900 -1,440 Descending Miami Center
09:11PM 28.2617 -82.9042 152° Southeast 294 338 9,500 -1,440 Descending Miami Center
09:12PM 28.1939 -82.8622 151° Southeast 282 325 8,000 -1,500 Descending Miami Center
09:13PM 28.1281 -82.8197 150° Southeast 277 319 6,500 -1,200 Descending Miami Center
09:14PM 28.0644 -82.7922 159° South 261 300 5,600 -960 Descending Miami Center
09:15PM 28.0028 -82.7933 181° South 241 277 4,600 -960 Descending Miami Center
09:16PM 27.9339 -82.7956 182° South 222 255 3,700 -960 Descending Miami Center
09:17PM 27.8792 -82.7961 181° South 210 242 2,700 -1,020 Descending Miami Center
09:18PM 27.8456 -82.7597 136° Southeast 194 223 1,700 -840 Descending Miami Center
09:19PM 27.8308 -82.7106 109° East 177 204 1,100 -540 Descending Miami Center
09:20PM 27.8558 -82.6794 48° Northeast 163 188 700 -420 Descending Miami Center